To NAV CANADA Home Page Login to a new session Search on AWWS site Disclaimer Vers la page française équivalente Tips FAQ What's new on the site To the Forecasts and Observations / NOTAM section To "File a Flight Plan" website Publications and other links Update of the User's profile FIC Telephone Numbers My Weather Data Folder Route Weather Data Regional Weather Data Local Weather Data To the Forecasts and Observations / NOTAM section
Request Generated 04/24/2019 at 16:27:09 UTC . Weather information available at that time is displayed.

METAR/TAF

SEPT-ILES/QC    

METAR CYZV 241600Z 09012KT 030V100 30SM FEW050 OVC060 06/M03 A2994 RMK SC2SC6 SLP145=
METAR CYZV 241500Z 06008KT 030V100 30SM FEW050 BKN060 OVC100 04/M03 A2995 RMK CU1SC6AC2 CU TR SLP147=
METAR CYZV 241400Z 04009KT 30SM FEW050 BKN060 OVC100 03/M02 A2996 RMK CU1SC5AC3 CU TR SLP149=

TAF CYZV 241142Z 2412/2512 05009KT P6SM FEW020 OVC060 TEMPO 2412/2413
P6SM -SN BKN020 OVC040
FM241300 06010G20KT P6SM SCT030 OVC080 TEMPO 2413/2416 5SM -RASN
BKN030 OVC080
FM241600 07010KT P6SM SCT030 OVC080
FM242000 10008KT 6SM -RA BR SCT015 OVC030
FM242300 06006KT 2SM -SN BKN015 OVC030
FM250400 06006KT P6SM SCT015 BKN030
FM250600 06008KT P6SM SCT030 BKN080
RMK NXT FCST BY 241800Z=
Your time UTC time
Weather data provided by Environment Canada and NAV CANADA